sensor_id;sensor_type;location;lat;lon;timestamp;P1;durP1;ratioP1;P2;durP2;ratioP2
67904;SDS011;54709;43.614;1.576;2023-02-17T00:00:07;21.33;;;15.32;;
67904;SDS011;54709;43.614;1.576;2023-02-17T00:02:34;25.00;;;15.90;;
67904;SDS011;54709;43.614;1.576;2023-02-17T00:04:59;26.05;;;16.85;;
67904;SDS011;54709;43.614;1.576;2023-02-17T00:07:25;24.15;;;15.80;;
67904;SDS011;54709;43.614;1.576;2023-02-17T00:09:55;27.45;;;16.30;;
67904;SDS011;54709;43.614;1.576;2023-02-17T00:12:24;23.42;;;16.15;;
67904;SDS011;54709;43.614;1.576;2023-02-17T00:14:50;25.63;;;17.10;;
67904;SDS011;54709;43.614;1.576;2023-02-17T00:17:15;24.42;;;16.15;;
67904;SDS011;54709;43.614;1.576;2023-02-17T00:19:41;20.75;;;16.10;;
67904;SDS011;54709;43.614;1.576;2023-02-17T00:22:06;23.00;;;16.20;;
67904;SDS011;54709;43.614;1.576;2023-02-17T00:24:32;23.83;;;15.50;;
67904;SDS011;54709;43.614;1.576;2023-02-17T00:27:00;25.33;;;16.52;;
67904;SDS011;54709;43.614;1.576;2023-02-17T00:29:26;23.10;;;16.42;;
67904;SDS011;54709;43.614;1.576;2023-02-17T00:31:52;23.25;;;16.70;;
67904;SDS011;54709;43.614;1.576;2023-02-17T00:34:17;26.45;;;16.77;;
67904;SDS011;54709;43.614;1.576;2023-02-17T00:36:43;24.67;;;15.95;;
67904;SDS011;54709;43.614;1.576;2023-02-17T00:39:10;23.52;;;16.80;;
67904;SDS011;54709;43.614;1.576;2023-02-17T00:41:36;24.17;;;16.75;;
67904;SDS011;54709;43.614;1.576;2023-02-17T00:44:02;22.48;;;16.15;;
67904;SDS011;54709;43.614;1.576;2023-02-17T00:46:27;24.67;;;17.27;;
67904;SDS011;54709;43.614;1.576;2023-02-17T00:48:53;26.15;;;16.90;;
67904;SDS011;54709;43.614;1.576;2023-02-17T00:51:18;26.55;;;16.80;;
67904;SDS011;54709;43.614;1.576;2023-02-17T00:53:44;25.50;;;17.42;;
67904;SDS011;54709;43.614;1.576;2023-02-17T00:56:10;28.85;;;18.92;;
67904;SDS011;54709;43.614;1.576;2023-02-17T00:58:36;26.08;;;17.95;;
67904;SDS011;54709;43.614;1.576;2023-02-17T01:01:02;25.48;;;17.55;;
67904;SDS011;54709;43.614;1.576;2023-02-17T01:03:27;26.55;;;18.30;;
67904;SDS011;54709;43.614;1.576;2023-02-17T01:05:54;26.23;;;18.58;;
67904;SDS011;54709;43.614;1.576;2023-02-17T01:08:20;27.23;;;17.80;;
67904;SDS011;54709;43.614;1.576;2023-02-17T01:10:46;31.70;;;19.02;;
67904;SDS011;54709;43.614;1.576;2023-02-17T01:13:12;28.30;;;18.88;;
67904;SDS011;54709;43.614;1.576;2023-02-17T01:15:40;26.10;;;18.05;;
67904;SDS011;54709;43.614;1.576;2023-02-17T01:18:07;27.15;;;18.00;;
67904;SDS011;54709;43.614;1.576;2023-02-17T01:20:37;24.45;;;17.40;;
67904;SDS011;54709;43.614;1.576;2023-02-17T01:23:03;25.92;;;17.25;;
67904;SDS011;54709;43.614;1.576;2023-02-17T01:25:29;27.75;;;16.88;;
67904;SDS011;54709;43.614;1.576;2023-02-17T01:27:55;22.75;;;16.55;;
67904;SDS011;54709;43.614;1.576;2023-02-17T01:30:20;22.27;;;16.33;;
67904;SDS011;54709;43.614;1.576;2023-02-17T01:32:46;24.05;;;16.23;;
67904;SDS011;54709;43.614;1.576;2023-02-17T01:35:11;22.52;;;15.73;;
67904;SDS011;54709;43.614;1.576;2023-02-17T01:37:37;23.02;;;15.77;;
67904;SDS011;54709;43.614;1.576;2023-02-17T01:40:02;24.52;;;16.38;;
67904;SDS011;54709;43.614;1.576;2023-02-17T01:42:28;24.55;;;17.15;;
67904;SDS011;54709;43.614;1.576;2023-02-17T01:47:44;23.17;;;16.08;;
67904;SDS011;54709;43.614;1.576;2023-02-17T01:50:10;23.52;;;16.00;;
67904;SDS011;54709;43.614;1.576;2023-02-17T01:52:35;24.10;;;15.93;;
67904;SDS011;54709;43.614;1.576;2023-02-17T01:55:03;26.88;;;17.08;;
67904;SDS011;54709;43.614;1.576;2023-02-17T01:57:33;25.05;;;15.75;;
67904;SDS011;54709;43.614;1.576;2023-02-17T01:59:59;23.17;;;16.17;;
67904;SDS011;54709;43.614;1.576;2023-02-17T02:02:25;24.80;;;17.00;;
67904;SDS011;54709;43.614;1.576;2023-02-17T02:04:54;27.95;;;17.05;;
67904;SDS011;54709;43.614;1.576;2023-02-17T02:07:20;22.80;;;16.63;;
67904;SDS011;54709;43.614;1.576;2023-02-17T02:09:49;24.75;;;16.67;;
67904;SDS011;54709;43.614;1.576;2023-02-17T02:12:36;22.50;;;16.58;;
67904;SDS011;54709;43.614;1.576;2023-02-17T02:15:12;26.83;;;16.98;;
67904;SDS011;54709;43.614;1.576;2023-02-17T02:34:57;28.92;;;18.95;;
67904;SDS011;54709;43.614;1.576;2023-02-17T02:38:26;24.75;;;19.27;;
67904;SDS011;54709;43.614;1.576;2023-02-17T02:40:33;27.70;;;19.20;;
67904;SDS011;54709;43.614;1.576;2023-02-17T02:43:00;25.13;;;18.63;;
67904;SDS011;54709;43.614;1.576;2023-02-17T02:45:26;24.35;;;17.95;;
67904;SDS011;54709;43.614;1.576;2023-02-17T02:47:53;25.70;;;17.58;;
67904;SDS011;54709;43.614;1.576;2023-02-17T02:50:20;28.75;;;18.67;;
67904;SDS011;54709;43.614;1.576;2023-02-17T03:06:44;23.65;;;17.17;;
67904;SDS011;54709;43.614;1.576;2023-02-17T03:09:23;25.10;;;17.15;;
67904;SDS011;54709;43.614;1.576;2023-02-17T03:11:50;20.88;;;17.23;;
67904;SDS011;54709;43.614;1.576;2023-02-17T03:14:18;23.27;;;16.67;;
67904;SDS011;54709;43.614;1.576;2023-02-17T03:16:45;23.15;;;16.65;;
67904;SDS011;54709;43.614;1.576;2023-02-17T03:19:11;25.60;;;16.38;;
67904;SDS011;54709;43.614;1.576;2023-02-17T03:21:42;24.85;;;17.73;;
67904;SDS011;54709;43.614;1.576;2023-02-17T03:24:12;27.05;;;18.90;;
67904;SDS011;54709;43.614;1.576;2023-02-17T03:26:37;27.02;;;18.17;;
67904;SDS011;54709;43.614;1.576;2023-02-17T03:29:02;26.95;;;17.35;;
67904;SDS011;54709;43.614;1.576;2023-02-17T03:31:28;25.50;;;17.75;;
67904;SDS011;54709;43.614;1.576;2023-02-17T03:33:53;24.80;;;17.27;;
67904;SDS011;54709;43.614;1.576;2023-02-17T03:36:19;26.05;;;18.38;;
67904;SDS011;54709;43.614;1.576;2023-02-17T03:38:44;23.90;;;17.10;;
67904;SDS011;54709;43.614;1.576;2023-02-17T03:41:10;27.90;;;17.88;;
67904;SDS011;54709;43.614;1.576;2023-02-17T03:43:35;25.70;;;17.75;;
67904;SDS011;54709;43.614;1.576;2023-02-17T03:46:01;25.75;;;17.45;;
67904;SDS011;54709;43.614;1.576;2023-02-17T03:48:26;31.98;;;19.50;;
67904;SDS011;54709;43.614;1.576;2023-02-17T03:50:51;26.42;;;19.45;;
67904;SDS011;54709;43.614;1.576;2023-02-17T03:53:17;24.52;;;17.80;;
67904;SDS011;54709;43.614;1.576;2023-02-17T03:55:42;27.00;;;19.02;;
67904;SDS011;54709;43.614;1.576;2023-02-17T03:58:08;25.38;;;17.48;;
67904;SDS011;54709;43.614;1.576;2023-02-17T04:00:33;28.55;;;19.80;;
67904;SDS011;54709;43.614;1.576;2023-02-17T04:02:58;32.20;;;19.80;;
67904;SDS011;54709;43.614;1.576;2023-02-17T04:05:24;27.77;;;18.35;;
67904;SDS011;54709;43.614;1.576;2023-02-17T04:07:49;25.65;;;18.50;;
67904;SDS011;54709;43.614;1.576;2023-02-17T04:10:15;24.45;;;17.45;;
67904;SDS011;54709;43.614;1.576;2023-02-17T04:12:41;26.67;;;18.25;;
67904;SDS011;54709;43.614;1.576;2023-02-17T04:15:06;22.63;;;17.77;;
67904;SDS011;54709;43.614;1.576;2023-02-17T04:17:34;27.38;;;18.65;;
67904;SDS011;54709;43.614;1.576;2023-02-17T04:20:00;27.48;;;19.38;;
67904;SDS011;54709;43.614;1.576;2023-02-17T04:22:25;31.45;;;21.05;;
67904;SDS011;54709;43.614;1.576;2023-02-17T04:24:51;28.38;;;19.20;;
67904;SDS011;54709;43.614;1.576;2023-02-17T04:27:16;30.85;;;21.23;;
67904;SDS011;54709;43.614;1.576;2023-02-17T04:29:41;28.25;;;18.90;;
67904;SDS011;54709;43.614;1.576;2023-02-17T04:32:07;30.13;;;20.73;;
67904;SDS011;54709;43.614;1.576;2023-02-17T04:34:32;26.77;;;18.95;;
67904;SDS011;54709;43.614;1.576;2023-02-17T04:36:57;31.30;;;21.05;;
67904;SDS011;54709;43.614;1.576;2023-02-17T04:39:23;32.08;;;21.27;;
67904;SDS011;54709;43.614;1.576;2023-02-17T04:41:48;30.02;;;20.38;;
67904;SDS011;54709;43.614;1.576;2023-02-17T04:44:14;29.05;;;19.73;;
67904;SDS011;54709;43.614;1.576;2023-02-17T04:46:39;28.27;;;18.95;;
67904;SDS011;54709;43.614;1.576;2023-02-17T04:49:04;28.58;;;19.23;;
67904;SDS011;54709;43.614;1.576;2023-02-17T04:51:30;26.23;;;19.48;;
67904;SDS011;54709;43.614;1.576;2023-02-17T04:53:55;30.05;;;19.40;;
67904;SDS011;54709;43.614;1.576;2023-02-17T04:56:21;27.75;;;19.13;;
67904;SDS011;54709;43.614;1.576;2023-02-17T04:58:46;28.58;;;19.25;;
67904;SDS011;54709;43.614;1.576;2023-02-17T05:01:11;27.77;;;19.27;;
67904;SDS011;54709;43.614;1.576;2023-02-17T05:03:37;25.95;;;18.02;;
67904;SDS011;54709;43.614;1.576;2023-02-17T05:06:02;27.40;;;17.95;;
67904;SDS011;54709;43.614;1.576;2023-02-17T05:08:28;25.35;;;18.88;;
67904;SDS011;54709;43.614;1.576;2023-02-17T05:10:53;28.52;;;19.27;;
67904;SDS011;54709;43.614;1.576;2023-02-17T05:13:19;31.63;;;18.77;;
67904;SDS011;54709;43.614;1.576;2023-02-17T05:15:44;24.45;;;18.13;;
67904;SDS011;54709;43.614;1.576;2023-02-17T05:18:11;25.48;;;17.70;;
67904;SDS011;54709;43.614;1.576;2023-02-17T05:20:37;24.23;;;17.63;;
67904;SDS011;54709;43.614;1.576;2023-02-17T05:23:02;25.13;;;17.75;;
67904;SDS011;54709;43.614;1.576;2023-02-17T05:25:28;24.52;;;17.40;;
67904;SDS011;54709;43.614;1.576;2023-02-17T05:27:53;26.40;;;17.85;;
67904;SDS011;54709;43.614;1.576;2023-02-17T05:30:19;26.30;;;17.83;;
67904;SDS011;54709;43.614;1.576;2023-02-17T05:32:44;25.73;;;16.65;;
67904;SDS011;54709;43.614;1.576;2023-02-17T05:35:10;24.10;;;16.20;;
67904;SDS011;54709;43.614;1.576;2023-02-17T05:37:35;23.17;;;16.48;;
67904;SDS011;54709;43.614;1.576;2023-02-17T05:40:01;24.70;;;16.35;;
67904;SDS011;54709;43.614;1.576;2023-02-17T05:42:27;20.27;;;15.10;;
67904;SDS011;54709;43.614;1.576;2023-02-17T05:44:53;26.58;;;16.08;;
67904;SDS011;54709;43.614;1.576;2023-02-17T05:47:19;21.27;;;15.00;;
67904;SDS011;54709;43.614;1.576;2023-02-17T05:49:45;25.48;;;15.45;;
67904;SDS011;54709;43.614;1.576;2023-02-17T05:52:10;20.83;;;14.70;;
67904;SDS011;54709;43.614;1.576;2023-02-17T05:54:36;20.40;;;14.52;;
67904;SDS011;54709;43.614;1.576;2023-02-17T05:57:01;20.10;;;14.57;;
67904;SDS011;54709;43.614;1.576;2023-02-17T05:59:27;20.75;;;14.57;;
67904;SDS011;54709;43.614;1.576;2023-02-17T06:01:52;22.13;;;15.02;;
67904;SDS011;54709;43.614;1.576;2023-02-17T06:04:17;22.88;;;15.20;;
67904;SDS011;54709;43.614;1.576;2023-02-17T06:06:43;22.52;;;15.02;;
67904;SDS011;54709;43.614;1.576;2023-02-17T06:09:08;24.52;;;15.07;;
67904;SDS011;54709;43.614;1.576;2023-02-17T06:11:34;24.55;;;15.77;;
67904;SDS011;54709;43.614;1.576;2023-02-17T06:13:59;22.95;;;14.80;;
67904;SDS011;54709;43.614;1.576;2023-02-17T06:16:25;23.40;;;16.15;;
67904;SDS011;54709;43.614;1.576;2023-02-17T06:18:50;23.88;;;18.08;;
67904;SDS011;54709;43.614;1.576;2023-02-17T06:21:15;31.23;;;19.00;;
67904;SDS011;54709;43.614;1.576;2023-02-17T06:23:41;30.45;;;19.33;;
67904;SDS011;54709;43.614;1.576;2023-02-17T06:26:06;28.38;;;20.27;;
67904;SDS011;54709;43.614;1.576;2023-02-17T06:28:31;28.50;;;19.83;;
67904;SDS011;54709;43.614;1.576;2023-02-17T06:30:57;25.63;;;19.90;;
67904;SDS011;54709;43.614;1.576;2023-02-17T06:33:22;28.63;;;19.95;;
67904;SDS011;54709;43.614;1.576;2023-02-17T06:35:48;33.03;;;20.58;;
67904;SDS011;54709;43.614;1.576;2023-02-17T06:38:15;24.88;;;18.98;;
67904;SDS011;54709;43.614;1.576;2023-02-17T06:40:40;30.25;;;19.40;;
67904;SDS011;54709;43.614;1.576;2023-02-17T06:43:06;21.85;;;16.95;;
67904;SDS011;54709;43.614;1.576;2023-02-17T06:45:31;24.92;;;16.65;;
67904;SDS011;54709;43.614;1.576;2023-02-17T06:47:57;27.25;;;18.15;;
67904;SDS011;54709;43.614;1.576;2023-02-17T06:50:22;27.00;;;18.95;;
67904;SDS011;54709;43.614;1.576;2023-02-17T06:52:48;31.50;;;20.38;;
67904;SDS011;54709;43.614;1.576;2023-02-17T06:55:13;30.95;;;20.67;;
67904;SDS011;54709;43.614;1.576;2023-02-17T06:57:38;29.55;;;20.67;;
67904;SDS011;54709;43.614;1.576;2023-02-17T07:00:04;29.67;;;21.33;;
67904;SDS011;54709;43.614;1.576;2023-02-17T07:02:30;34.03;;;22.90;;
67904;SDS011;54709;43.614;1.576;2023-02-17T07:04:56;37.10;;;24.10;;
67904;SDS011;54709;43.614;1.576;2023-02-17T07:07:21;35.05;;;22.50;;
67904;SDS011;54709;43.614;1.576;2023-02-17T07:09:46;34.72;;;22.65;;
67904;SDS011;54709;43.614;1.576;2023-02-17T07:12:12;36.65;;;23.73;;
67904;SDS011;54709;43.614;1.576;2023-02-17T07:14:37;35.92;;;23.15;;
67904;SDS011;54709;43.614;1.576;2023-02-17T07:17:03;37.00;;;23.10;;
67904;SDS011;54709;43.614;1.576;2023-02-17T07:19:29;35.95;;;23.52;;
67904;SDS011;54709;43.614;1.576;2023-02-17T07:21:54;37.00;;;24.85;;
67904;SDS011;54709;43.614;1.576;2023-02-17T07:24:19;36.75;;;24.13;;
67904;SDS011;54709;43.614;1.576;2023-02-17T07:26:45;38.83;;;24.40;;
67904;SDS011;54709;43.614;1.576;2023-02-17T07:29:10;35.30;;;25.33;;
67904;SDS011;54709;43.614;1.576;2023-02-17T07:31:36;38.63;;;25.20;;
67904;SDS011;54709;43.614;1.576;2023-02-17T07:34:01;36.33;;;24.95;;
67904;SDS011;54709;43.614;1.576;2023-02-17T07:36:28;36.20;;;24.30;;
67904;SDS011;54709;43.614;1.576;2023-02-17T07:38:53;34.13;;;23.90;;
67904;SDS011;54709;43.614;1.576;2023-02-17T07:41:20;34.42;;;23.85;;
67904;SDS011;54709;43.614;1.576;2023-02-17T07:43:47;32.38;;;23.90;;
67904;SDS011;54709;43.614;1.576;2023-02-17T07:46:13;33.90;;;23.52;;
67904;SDS011;54709;43.614;1.576;2023-02-17T07:48:39;38.20;;;23.92;;
67904;SDS011;54709;43.614;1.576;2023-02-17T07:51:09;35.45;;;22.50;;
67904;SDS011;54709;43.614;1.576;2023-02-17T07:53:36;30.95;;;22.48;;
67904;SDS011;54709;43.614;1.576;2023-02-17T07:56:05;33.15;;;22.80;;
67904;SDS011;54709;43.614;1.576;2023-02-17T07:58:36;34.28;;;22.80;;
67904;SDS011;54709;43.614;1.576;2023-02-17T08:01:06;33.70;;;22.98;;
67904;SDS011;54709;43.614;1.576;2023-02-17T08:03:32;35.83;;;23.00;;
67904;SDS011;54709;43.614;1.576;2023-02-17T08:05:58;30.48;;;21.60;;
67904;SDS011;54709;43.614;1.576;2023-02-17T08:08:23;31.13;;;20.73;;
67904;SDS011;54709;43.614;1.576;2023-02-17T08:11:10;28.25;;;19.92;;
67904;SDS011;54709;43.614;1.576;2023-02-17T08:13:54;25.67;;;18.63;;
67904;SDS011;54709;43.614;1.576;2023-02-17T08:16:20;26.90;;;18.70;;
67904;SDS011;54709;43.614;1.576;2023-02-17T08:18:45;26.75;;;18.63;;
67904;SDS011;54709;43.614;1.576;2023-02-17T08:21:11;21.65;;;16.92;;
67904;SDS011;54709;43.614;1.576;2023-02-17T08:23:36;23.67;;;16.13;;
67904;SDS011;54709;43.614;1.576;2023-02-17T08:26:02;20.75;;;15.30;;
67904;SDS011;54709;43.614;1.576;2023-02-17T08:28:28;25.15;;;14.98;;
67904;SDS011;54709;43.614;1.576;2023-02-17T08:30:54;23.10;;;15.18;;
67904;SDS011;54709;43.614;1.576;2023-02-17T08:33:19;22.17;;;13.90;;
67904;SDS011;54709;43.614;1.576;2023-02-17T08:35:45;21.45;;;14.20;;
67904;SDS011;54709;43.614;1.576;2023-02-17T08:38:11;18.38;;;13.43;;
67904;SDS011;54709;43.614;1.576;2023-02-17T08:40:36;23.52;;;14.13;;
67904;SDS011;54709;43.614;1.576;2023-02-17T08:43:02;22.77;;;14.98;;
67904;SDS011;54709;43.614;1.576;2023-02-17T08:45:27;20.27;;;14.63;;
67904;SDS011;54709;43.614;1.576;2023-02-17T08:47:52;21.65;;;14.05;;
67904;SDS011;54709;43.614;1.576;2023-02-17T08:50:18;20.23;;;14.30;;
67904;SDS011;54709;43.614;1.576;2023-02-17T08:52:44;19.83;;;13.63;;
67904;SDS011;54709;43.614;1.576;2023-02-17T08:55:11;20.75;;;15.20;;
67904;SDS011;54709;43.614;1.576;2023-02-17T08:57:36;16.10;;;14.23;;
67904;SDS011;54709;43.614;1.576;2023-02-17T09:00:03;20.00;;;14.90;;
67904;SDS011;54709;43.614;1.576;2023-02-17T09:02:31;23.05;;;14.88;;
67904;SDS011;54709;43.614;1.576;2023-02-17T09:04:56;19.02;;;15.43;;
67904;SDS011;54709;43.614;1.576;2023-02-17T09:07:21;19.95;;;14.98;;
67904;SDS011;54709;43.614;1.576;2023-02-17T09:09:47;20.25;;;14.57;;
67904;SDS011;54709;43.614;1.576;2023-02-17T09:12:12;20.17;;;14.55;;
67904;SDS011;54709;43.614;1.576;2023-02-17T09:14:38;23.25;;;14.57;;
67904;SDS011;54709;43.614;1.576;2023-02-17T09:17:03;20.10;;;13.55;;
67904;SDS011;54709;43.614;1.576;2023-02-17T09:19:29;19.58;;;14.15;;
67904;SDS011;54709;43.614;1.576;2023-02-17T09:21:54;17.60;;;13.02;;
67904;SDS011;54709;43.614;1.576;2023-02-17T09:24:20;17.90;;;13.68;;
67904;SDS011;54709;43.614;1.576;2023-02-17T09:26:45;19.42;;;14.07;;
67904;SDS011;54709;43.614;1.576;2023-02-17T09:29:11;16.67;;;12.70;;
67904;SDS011;54709;43.614;1.576;2023-02-17T09:31:36;19.73;;;14.02;;
67904;SDS011;54709;43.614;1.576;2023-02-17T09:34:02;19.08;;;13.52;;
67904;SDS011;54709;43.614;1.576;2023-02-17T09:36:32;18.75;;;13.25;;
67904;SDS011;54709;43.614;1.576;2023-02-17T09:39:02;18.27;;;12.80;;
67904;SDS011;54709;43.614;1.576;2023-02-17T09:44:05;19.55;;;13.93;;
67904;SDS011;54709;43.614;1.576;2023-02-17T09:46:40;19.85;;;13.98;;
67904;SDS011;54709;43.614;1.576;2023-02-17T09:49:13;17.90;;;13.85;;
67904;SDS011;54709;43.614;1.576;2023-02-17T09:54:18;16.65;;;13.10;;
67904;SDS011;54709;43.614;1.576;2023-02-17T09:59:55;19.85;;;13.32;;
67904;SDS011;54709;43.614;1.576;2023-02-17T10:02:06;15.25;;;12.10;;
67904;SDS011;54709;43.614;1.576;2023-02-17T10:04:55;16.52;;;12.77;;
67904;SDS011;54709;43.614;1.576;2023-02-17T10:07:26;15.90;;;11.73;;
67904;SDS011;54709;43.614;1.576;2023-02-17T10:09:56;16.70;;;11.85;;
67904;SDS011;54709;43.614;1.576;2023-02-17T10:12:32;17.67;;;12.20;;
67904;SDS011;54709;43.614;1.576;2023-02-17T10:20:32;16.52;;;12.20;;
67904;SDS011;54709;43.614;1.576;2023-02-17T10:23:32;17.63;;;12.18;;
67904;SDS011;54709;43.614;1.576;2023-02-17T10:28:43;18.15;;;10.25;;
67904;SDS011;54709;43.614;1.576;2023-02-17T10:31:19;16.85;;;11.35;;
67904;SDS011;54709;43.614;1.576;2023-02-17T10:34:04;15.98;;;10.55;;
67904;SDS011;54709;43.614;1.576;2023-02-17T10:40:02;15.52;;;11.10;;
67904;SDS011;54709;43.614;1.576;2023-02-17T10:42:23;13.55;;;10.32;;
67904;SDS011;54709;43.614;1.576;2023-02-17T10:44:51;15.65;;;10.90;;
67904;SDS011;54709;43.614;1.576;2023-02-17T10:47:18;16.40;;;10.02;;
67904;SDS011;54709;43.614;1.576;2023-02-17T10:49:46;15.52;;;10.55;;
67904;SDS011;54709;43.614;1.576;2023-02-17T10:54:48;14.88;;;10.10;;
67904;SDS011;54709;43.614;1.576;2023-02-17T10:57:36;12.93;;;10.02;;
67904;SDS011;54709;43.614;1.576;2023-02-17T11:00:06;16.42;;;9.73;;
67904;SDS011;54709;43.614;1.576;2023-02-17T11:02:43;15.55;;;9.93;;
67904;SDS011;54709;43.614;1.576;2023-02-17T11:05:25;13.60;;;9.57;;
67904;SDS011;54709;43.614;1.576;2023-02-17T11:07:53;14.93;;;9.65;;
67904;SDS011;54709;43.614;1.576;2023-02-17T11:10:33;12.57;;;9.48;;
67904;SDS011;54709;43.614;1.576;2023-02-17T11:13:01;11.80;;;9.20;;
67904;SDS011;54709;43.614;1.576;2023-02-17T11:15:29;14.07;;;9.23;;
67904;SDS011;54709;43.614;1.576;2023-02-17T11:17:59;13.32;;;9.70;;
67904;SDS011;54709;43.614;1.576;2023-02-17T11:20:27;12.75;;;9.73;;
67904;SDS011;54709;43.614;1.576;2023-02-17T11:25:33;14.50;;;9.73;;
67904;SDS011;54709;43.614;1.576;2023-02-17T11:28:00;16.30;;;10.02;;
67904;SDS011;54709;43.614;1.576;2023-02-17T11:30:28;14.95;;;10.45;;
67904;SDS011;54709;43.614;1.576;2023-02-17T11:32:55;13.52;;;9.98;;
67904;SDS011;54709;43.614;1.576;2023-02-17T11:38:02;13.05;;;10.80;;
67904;SDS011;54709;43.614;1.576;2023-02-17T11:40:29;15.20;;;10.25;;
67904;SDS011;54709;43.614;1.576;2023-02-17T11:42:59;13.75;;;10.10;;
67904;SDS011;54709;43.614;1.576;2023-02-17T11:45:38;17.40;;;10.48;;
67904;SDS011;54709;43.614;1.576;2023-02-17T11:53:19;11.90;;;9.50;;
67904;SDS011;54709;43.614;1.576;2023-02-17T12:06:16;15.88;;;9.57;;
67904;SDS011;54709;43.614;1.576;2023-02-17T12:11:50;16.23;;;8.40;;
67904;SDS011;54709;43.614;1.576;2023-02-17T12:16:56;13.13;;;8.05;;
67904;SDS011;54709;43.614;1.576;2023-02-17T12:19:40;19.05;;;10.02;;
67904;SDS011;54709;43.614;1.576;2023-02-17T12:22:17;12.68;;;9.10;;
67904;SDS011;54709;43.614;1.576;2023-02-17T12:24:49;18.90;;;8.98;;
67904;SDS011;54709;43.614;1.576;2023-02-17T12:33:18;17.75;;;6.60;;
67904;SDS011;54709;43.614;1.576;2023-02-17T12:36:12;11.88;;;6.10;;
67904;SDS011;54709;43.614;1.576;2023-02-17T12:38:43;12.05;;;6.18;;
67904;SDS011;54709;43.614;1.576;2023-02-17T12:41:19;15.88;;;6.00;;
67904;SDS011;54709;43.614;1.576;2023-02-17T12:43:54;17.40;;;6.68;;
67904;SDS011;54709;43.614;1.576;2023-02-17T12:46:28;17.73;;;6.85;;
67904;SDS011;54709;43.614;1.576;2023-02-17T12:57:48;14.65;;;6.72;;
67904;SDS011;54709;43.614;1.576;2023-02-17T13:00:26;12.52;;;6.97;;
67904;SDS011;54709;43.614;1.576;2023-02-17T13:02:57;16.50;;;6.70;;
67904;SDS011;54709;43.614;1.576;2023-02-17T13:05:25;9.98;;;6.90;;
67904;SDS011;54709;43.614;1.576;2023-02-17T13:08:04;12.25;;;6.65;;
67904;SDS011;54709;43.614;1.576;2023-02-17T13:10:33;9.38;;;6.30;;
67904;SDS011;54709;43.614;1.576;2023-02-17T13:13:43;17.15;;;7.43;;
67904;SDS011;54709;43.614;1.576;2023-02-17T13:16:00;18.05;;;6.70;;
67904;SDS011;54709;43.614;1.576;2023-02-17T13:18:29;14.07;;;7.13;;
67904;SDS011;54709;43.614;1.576;2023-02-17T13:21:15;11.63;;;6.55;;
67904;SDS011;54709;43.614;1.576;2023-02-17T13:26:40;17.60;;;6.90;;
67904;SDS011;54709;43.614;1.576;2023-02-17T13:34:22;11.63;;;5.60;;
67904;SDS011;54709;43.614;1.576;2023-02-17T13:36:49;12.68;;;6.05;;
67904;SDS011;54709;43.614;1.576;2023-02-17T13:41:53;14.07;;;6.53;;
67904;SDS011;54709;43.614;1.576;2023-02-17T13:44:30;15.43;;;5.75;;
67904;SDS011;54709;43.614;1.576;2023-02-17T13:47:04;11.93;;;5.50;;
67904;SDS011;54709;43.614;1.576;2023-02-17T13:49:32;13.63;;;6.40;;
67904;SDS011;54709;43.614;1.576;2023-02-17T13:52:09;16.75;;;5.88;;
67904;SDS011;54709;43.614;1.576;2023-02-17T13:54:51;19.63;;;6.72;;
67904;SDS011;54709;43.614;1.576;2023-02-17T13:57:21;15.02;;;6.05;;
67904;SDS011;54709;43.614;1.576;2023-02-17T13:59:48;17.13;;;6.25;;
67904;SDS011;54709;43.614;1.576;2023-02-17T14:02:17;15.57;;;5.85;;
67904;SDS011;54709;43.614;1.576;2023-02-17T14:04:44;11.80;;;5.93;;
67904;SDS011;54709;43.614;1.576;2023-02-17T14:07:09;16.20;;;5.82;;
67904;SDS011;54709;43.614;1.576;2023-02-17T14:09:36;15.88;;;6.90;;
67904;SDS011;54709;43.614;1.576;2023-02-17T14:12:02;15.77;;;6.90;;
67904;SDS011;54709;43.614;1.576;2023-02-17T14:14:31;16.75;;;6.40;;
67904;SDS011;54709;43.614;1.576;2023-02-17T14:16:59;16.30;;;6.47;;
67904;SDS011;54709;43.614;1.576;2023-02-17T14:19:26;12.45;;;6.28;;
67904;SDS011;54709;43.614;1.576;2023-02-17T14:22:00;14.40;;;5.82;;
67904;SDS011;54709;43.614;1.576;2023-02-17T14:27:01;15.23;;;6.72;;
67904;SDS011;54709;43.614;1.576;2023-02-17T14:29:43;15.27;;;7.25;;
67904;SDS011;54709;43.614;1.576;2023-02-17T14:32:31;15.73;;;7.05;;
67904;SDS011;54709;43.614;1.576;2023-02-17T14:35:05;17.50;;;7.43;;
67904;SDS011;54709;43.614;1.576;2023-02-17T14:37:30;13.27;;;7.20;;
67904;SDS011;54709;43.614;1.576;2023-02-17T14:40:00;16.10;;;6.50;;
67904;SDS011;54709;43.614;1.576;2023-02-17T14:42:26;14.55;;;6.63;;
67904;SDS011;54709;43.614;1.576;2023-02-17T14:44:51;14.82;;;6.85;;
67904;SDS011;54709;43.614;1.576;2023-02-17T14:47:17;10.13;;;5.90;;
67904;SDS011;54709;43.614;1.576;2023-02-17T14:49:42;13.48;;;6.57;;
67904;SDS011;54709;43.614;1.576;2023-02-17T14:52:18;15.82;;;6.88;;
67904;SDS011;54709;43.614;1.576;2023-02-17T14:54:45;17.52;;;6.70;;
67904;SDS011;54709;43.614;1.576;2023-02-17T14:57:12;14.10;;;5.70;;
67904;SDS011;54709;43.614;1.576;2023-02-17T14:59:38;17.73;;;5.38;;
67904;SDS011;54709;43.614;1.576;2023-02-17T15:02:38;15.38;;;5.47;;
67904;SDS011;54709;43.614;1.576;2023-02-17T15:04:56;15.48;;;4.88;;
67904;SDS011;54709;43.614;1.576;2023-02-17T15:07:21;13.82;;;4.63;;
67904;SDS011;54709;43.614;1.576;2023-02-17T15:09:47;11.93;;;4.57;;
67904;SDS011;54709;43.614;1.576;2023-02-17T15:12:17;10.05;;;4.68;;
67904;SDS011;54709;43.614;1.576;2023-02-17T15:14:44;12.68;;;4.60;;
67904;SDS011;54709;43.614;1.576;2023-02-17T15:17:13;10.27;;;4.40;;
67904;SDS011;54709;43.614;1.576;2023-02-17T15:19:39;12.23;;;4.32;;
67904;SDS011;54709;43.614;1.576;2023-02-17T15:22:05;16.25;;;5.43;;
67904;SDS011;54709;43.614;1.576;2023-02-17T15:24:31;13.30;;;4.70;;
67904;SDS011;54709;43.614;1.576;2023-02-17T15:26:58;11.95;;;4.97;;
67904;SDS011;54709;43.614;1.576;2023-02-17T15:29:24;12.60;;;4.05;;
67904;SDS011;54709;43.614;1.576;2023-02-17T15:31:52;14.18;;;4.35;;
67904;SDS011;54709;43.614;1.576;2023-02-17T15:34:20;10.85;;;4.65;;
67904;SDS011;54709;43.614;1.576;2023-02-17T15:36:48;14.15;;;4.90;;
67904;SDS011;54709;43.614;1.576;2023-02-17T15:39:17;12.30;;;4.85;;
67904;SDS011;54709;43.614;1.576;2023-02-17T15:41:44;8.52;;;4.30;;
67904;SDS011;54709;43.614;1.576;2023-02-17T15:44:20;12.43;;;4.70;;
67904;SDS011;54709;43.614;1.576;2023-02-17T15:46:48;14.88;;;4.60;;
67904;SDS011;54709;43.614;1.576;2023-02-17T15:49:14;13.05;;;5.00;;
67904;SDS011;54709;43.614;1.576;2023-02-17T15:51:40;14.77;;;4.38;;
67904;SDS011;54709;43.614;1.576;2023-02-17T15:54:05;9.80;;;4.53;;
67904;SDS011;54709;43.614;1.576;2023-02-17T15:56:41;10.27;;;4.03;;
67904;SDS011;54709;43.614;1.576;2023-02-17T15:59:30;10.50;;;3.83;;
67904;SDS011;54709;43.614;1.576;2023-02-17T16:01:55;10.57;;;3.88;;
67904;SDS011;54709;43.614;1.576;2023-02-17T16:04:21;11.27;;;3.70;;
67904;SDS011;54709;43.614;1.576;2023-02-17T16:06:46;15.57;;;3.97;;
67904;SDS011;54709;43.614;1.576;2023-02-17T16:09:12;9.57;;;3.53;;
67904;SDS011;54709;43.614;1.576;2023-02-17T16:11:42;11.68;;;4.15;;
67904;SDS011;54709;43.614;1.576;2023-02-17T16:14:13;14.73;;;3.97;;
67904;SDS011;54709;43.614;1.576;2023-02-17T16:16:47;12.65;;;3.90;;
67904;SDS011;54709;43.614;1.576;2023-02-17T16:19:12;17.33;;;4.32;;
67904;SDS011;54709;43.614;1.576;2023-02-17T16:21:37;10.32;;;4.45;;